Terminal Aerodrome Forecast
Issued by NWS

Home | Current Version | Previous Version | Text Only | Print | Product List | Glossary Off
Versions: 1 2 3 4 5 6 7 8 9 10 11 12 13 14 15 16 17 18 19 20 21 22

000
FTUS43 KMPX 232338
TAFAXN
TAF
KAXN 232338Z 2400/2424 11014G20KT 6SM BR OVC008
     FM240500 13014KT 4SM BR OVC003
     FM241600 13015G22KT P6SM OVC007
     FM241900 14016G23KT P6SM SCT010 OVC020
     FM242100 14017G25KT P6SM VCTS SCT020CB OVC030=

USA.gov is the U.S. government's official web portal to all federal, state and local government web resources and services.